THY6PH LTBJ-LTFM
Flight info
| Callsign | THY6PH |
|---|---|
| Flight time | 0h 43m |
| Altitude | 28000 |
| Route | BERGO N618 DUGLA/N0448F270 Z713 INBET |
| Aircraft | B738/M-SDE2E3FGHIRWY/LB1 |
Departure
| Time | 2026-05-07 19:34 |
|---|---|
| Airport | Adnan Menderes International Airport (LTBJ) |
Arrival
| Time | 2026-05-07 20:17 |
|---|---|
| Airport | İstanbul Airport (LTFM) |
| Time | Latitude | Longitude | Altitude | Speed | Heading |
|---|---|---|---|---|---|
| 2026-05-07 19:09 | 38.29709 | 27.14924 | 410 ft | 0 kts | 256° |
| 2026-05-07 19:20 | 38.29710 | 27.14931 | 408 ft | 4 kts | 254° |
| 2026-05-07 19:20 | 38.29720 | 27.14962 | 410 ft | 4 kts | 237° |
| 2026-05-07 19:21 | 38.29737 | 27.14988 | 409 ft | 4 kts | 215° |
| 2026-05-07 19:21 | 38.29760 | 27.15000 | 407 ft | 4 kts | 177° |
| 2026-05-07 19:21 | 38.29768 | 27.14999 | 407 ft | 1 kts | 167° |
| 2026-05-07 19:23 | 38.29751 | 27.15004 | 410 ft | 8 kts | 166° |
| 2026-05-07 19:23 | 38.29674 | 27.15032 | 410 ft | 13 kts | 164° |
| 2026-05-07 19:24 | 38.29588 | 27.15055 | 407 ft | 12 kts | 165° |
| 2026-05-07 19:24 | 38.29505 | 27.15081 | 410 ft | 12 kts | 168° |
| 2026-05-07 19:24 | 38.29418 | 27.15107 | 410 ft | 14 kts | 165° |
| 2026-05-07 19:24 | 38.29318 | 27.15137 | 407 ft | 15 kts | 167° |
| 2026-05-07 19:25 | 38.29219 | 27.15168 | 410 ft | 14 kts | 166° |
| 2026-05-07 19:25 | 38.29122 | 27.15197 | 409 ft | 14 kts | 166° |
| 2026-05-07 19:25 | 38.29033 | 27.15227 | 410 ft | 12 kts | 153° |
| 2026-05-07 19:25 | 38.28979 | 27.15305 | 410 ft | 12 kts | 158° |
| 2026-05-07 19:26 | 38.28894 | 27.15333 | 411 ft | 13 kts | 167° |
| 2026-05-07 19:26 | 38.28805 | 27.15359 | 415 ft | 13 kts | 167° |
| 2026-05-07 19:26 | 38.28720 | 27.15385 | 413 ft | 13 kts | 166° |
| 2026-05-07 19:26 | 38.28636 | 27.15410 | 413 ft | 12 kts | 167° |
| 2026-05-07 19:27 | 38.28554 | 27.15434 | 411 ft | 12 kts | 167° |
| 2026-05-07 19:27 | 38.28476 | 27.15458 | 414 ft | 12 kts | 166° |
| 2026-05-07 19:27 | 38.28397 | 27.15482 | 412 ft | 11 kts | 166° |
| 2026-05-07 19:27 | 38.28295 | 27.15513 | 416 ft | 21 kts | 167° |
| 2026-05-07 19:28 | 38.28169 | 27.15552 | 412 ft | 18 kts | 166° |
| 2026-05-07 19:28 | 38.28100 | 27.15618 | 415 ft | 13 kts | 89° |
| 2026-05-07 19:28 | 38.28127 | 27.15762 | 415 ft | 19 kts | 74° |
| 2026-05-07 19:28 | 38.28184 | 27.15799 | 411 ft | 0 kts | 345° |
| 2026-05-07 19:29 | 38.28294 | 27.15764 | 415 ft | 58 kts | 346° |
| 2026-05-07 19:29 | 38.28644 | 27.15657 | 410 ft | 72 kts | 347° |
| 2026-05-07 19:29 | 38.29024 | 27.15528 | 417 ft | 17 kts | 320° |
| 2026-05-07 19:30 | 38.29034 | 27.15389 | 412 ft | 13 kts | 256° |
| 2026-05-07 19:30 | 38.29027 | 27.15348 | 410 ft | 0 kts | 257° |
| 2026-05-07 19:30 | 38.29027 | 27.15347 | 410 ft | 1 kts | 257° |
| 2026-05-07 19:31 | 38.29011 | 27.15312 | 408 ft | 8 kts | 218° |
| 2026-05-07 19:31 | 38.28928 | 27.15322 | 408 ft | 17 kts | 168° |
| 2026-05-07 19:31 | 38.28815 | 27.15359 | 415 ft | 16 kts | 167° |
| 2026-05-07 19:31 | 38.28706 | 27.15390 | 413 ft | 16 kts | 168° |
| 2026-05-07 19:32 | 38.28601 | 27.15419 | 414 ft | 15 kts | 164° |
| 2026-05-07 19:32 | 38.28555 | 27.15460 | 418 ft | 6 kts | 108° |
| 2026-05-07 19:32 | 38.28568 | 27.15537 | 418 ft | 12 kts | 76° |
| 2026-05-07 19:32 | 38.28589 | 27.15642 | 411 ft | 7 kts | 63° |
| 2026-05-07 19:33 | 38.28636 | 27.15661 | 413 ft | 8 kts | 354° |
| 2026-05-07 19:33 | 38.28695 | 27.15645 | 412 ft | 10 kts | 346° |
| 2026-05-07 19:33 | 38.29048 | 27.15538 | 413 ft | 102 kts | 346° |
| 2026-05-07 19:33 | 38.30025 | 27.15239 | 529 ft | 179 kts | 346° |
| 2026-05-07 19:34 | 38.31389 | 27.14834 | 1124 ft | 219 kts | 347° |
| 2026-05-07 19:34 | 38.32828 | 27.14398 | 2472 ft | 207 kts | 345° |
| 2026-05-07 19:34 | 38.34281 | 27.13951 | 3282 ft | 226 kts | 344° |
| 2026-05-07 19:34 | 38.35894 | 27.13373 | 3573 ft | 256 kts | 342° |
| 2026-05-07 19:35 | 38.37643 | 27.12712 | 4314 ft | 267 kts | 342° |
| 2026-05-07 19:35 | 38.39433 | 27.12030 | 5358 ft | 269 kts | 341° |
| 2026-05-07 19:35 | 38.41207 | 27.11231 | 6388 ft | 271 kts | 339° |
| 2026-05-07 19:35 | 38.42995 | 27.10407 | 7331 ft | 275 kts | 342° |
| 2026-05-07 19:36 | 38.44855 | 27.09773 | 8269 ft | 279 kts | 345° |
| 2026-05-07 19:36 | 38.46740 | 27.09127 | 9216 ft | 282 kts | 341° |
| 2026-05-07 19:36 | 38.48598 | 27.08295 | 10166 ft | 285 kts | 339° |
| 2026-05-07 19:36 | 38.50496 | 27.07404 | 10763 ft | 301 kts | 338° |
| 2026-05-07 19:37 | 38.52565 | 27.06480 | 10963 ft | 329 kts | 343° |
| 2026-05-07 19:37 | 38.54894 | 27.05856 | 11161 ft | 356 kts | 350° |
| 2026-05-07 19:37 | 38.57432 | 27.05760 | 11579 ft | 373 kts | 4° |
| 2026-05-07 19:37 | 38.60019 | 27.06192 | 12346 ft | 376 kts | 6° |
| 2026-05-07 19:38 | 38.62612 | 27.06685 | 13198 ft | 378 kts | 6° |
| 2026-05-07 19:38 | 38.65219 | 27.07183 | 13983 ft | 380 kts | 5° |
| 2026-05-07 19:38 | 38.67849 | 27.07673 | 14640 ft | 384 kts | 5° |
| 2026-05-07 19:38 | 38.70518 | 27.08157 | 15255 ft | 389 kts | 5° |
| 2026-05-07 19:39 | 38.73213 | 27.08635 | 15946 ft | 392 kts | 5° |
| 2026-05-07 19:39 | 38.75930 | 27.09111 | 16609 ft | 396 kts | 4° |
| 2026-05-07 19:39 | 38.78674 | 27.09590 | 17255 ft | 400 kts | 4° |
| 2026-05-07 19:39 | 38.81445 | 27.10072 | 17877 ft | 404 kts | 4° |
| 2026-05-07 19:40 | 38.84241 | 27.10559 | 18487 ft | 408 kts | 4° |
| 2026-05-07 19:40 | 38.87064 | 27.11052 | 19011 ft | 411 kts | 4° |
| 2026-05-07 19:40 | 38.89911 | 27.11549 | 19541 ft | 415 kts | 4° |
| 2026-05-07 19:40 | 38.92779 | 27.12051 | 20075 ft | 418 kts | 4° |
| 2026-05-07 19:41 | 38.95674 | 27.12558 | 20593 ft | 421 kts | 5° |
| 2026-05-07 19:41 | 38.98591 | 27.13069 | 21085 ft | 425 kts | 5° |
| 2026-05-07 19:41 | 39.01534 | 27.13587 | 21587 ft | 428 kts | 5° |
| 2026-05-07 19:41 | 39.04496 | 27.14120 | 22066 ft | 432 kts | 5° |
| 2026-05-07 19:42 | 39.07480 | 27.14661 | 22519 ft | 435 kts | 5° |
| 2026-05-07 19:42 | 39.10494 | 27.15209 | 22957 ft | 439 kts | 5° |
| 2026-05-07 19:42 | 39.13527 | 27.15761 | 23352 ft | 443 kts | 5° |
| 2026-05-07 19:42 | 39.16599 | 27.16320 | 23748 ft | 447 kts | 5° |
| 2026-05-07 19:43 | 39.19684 | 27.16881 | 24115 ft | 450 kts | 5° |
| 2026-05-07 19:43 | 39.22792 | 27.17447 | 24488 ft | 452 kts | 5° |
| 2026-05-07 19:43 | 39.25911 | 27.18015 | 24869 ft | 454 kts | 5° |
| 2026-05-07 19:43 | 39.29048 | 27.18586 | 25211 ft | 457 kts | 6° |
| 2026-05-07 19:44 | 39.32159 | 27.19154 | 25553 ft | 459 kts | 6° |
| 2026-05-07 19:44 | 39.35373 | 27.19740 | 25898 ft | 462 kts | 6° |
| 2026-05-07 19:44 | 39.38566 | 27.20324 | 26234 ft | 464 kts | 6° |
| 2026-05-07 19:44 | 39.41726 | 27.20902 | 26560 ft | 466 kts | 6° |
| 2026-05-07 19:45 | 39.44944 | 27.21491 | 26895 ft | 468 kts | 6° |
| 2026-05-07 19:45 | 39.48207 | 27.22087 | 27345 ft | 467 kts | 5° |
| 2026-05-07 19:45 | 39.51386 | 27.22410 | 27814 ft | 463 kts | 358° |
| 2026-05-07 19:45 | 39.54602 | 27.22248 | 28159 ft | 463 kts | 355° |
| 2026-05-07 19:46 | 39.61056 | 27.21736 | 28152 ft | 464 kts | 354° |
| 2026-05-07 19:46 | 39.67464 | 27.21252 | 28159 ft | 460 kts | 355° |
| 2026-05-07 19:47 | 39.73869 | 27.20818 | 28152 ft | 462 kts | 355° |
| 2026-05-07 19:47 | 39.80295 | 27.20398 | 28148 ft | 463 kts | 355° |
| 2026-05-07 19:48 | 39.86732 | 27.19974 | 28137 ft | 463 kts | 355° |
| 2026-05-07 19:48 | 39.93157 | 27.19549 | 28133 ft | 462 kts | 355° |
| 2026-05-07 19:49 | 39.99582 | 27.19769 | 28129 ft | 465 kts | 7° |
| 2026-05-07 19:49 | 40.02688 | 27.20775 | 28124 ft | 451 kts | 15° |
| 2026-05-07 19:49 | 40.05600 | 27.22026 | 28116 ft | 431 kts | 16° |
| 2026-05-07 19:50 | 40.08387 | 27.23247 | 28112 ft | 414 kts | 16° |
| 2026-05-07 19:50 | 40.11072 | 27.24397 | 28112 ft | 398 kts | 15° |
| 2026-05-07 19:50 | 40.13665 | 27.25477 | 28110 ft | 384 kts | 15° |
| 2026-05-07 19:50 | 40.16188 | 27.26515 | 28121 ft | 381 kts | 15° |
| 2026-05-07 19:51 | 40.18767 | 27.27515 | 28133 ft | 392 kts | 9° |
| 2026-05-07 19:51 | 40.21472 | 27.27919 | 28132 ft | 387 kts | 1° |
| 2026-05-07 19:51 | 40.24118 | 27.28068 | 28111 ft | 374 kts | 359° |
| 2026-05-07 19:51 | 40.26681 | 27.28172 | 27824 ft | 367 kts | 359° |
| 2026-05-07 19:52 | 40.29277 | 27.28286 | 26751 ft | 382 kts | 360° |
| 2026-05-07 19:52 | 40.32006 | 27.28429 | 25586 ft | 401 kts | 0° |
| 2026-05-07 19:52 | 40.34812 | 27.28602 | 24890 ft | 404 kts | 0° |
| 2026-05-07 19:52 | 40.37601 | 27.28791 | 24457 ft | 399 kts | 0° |
| 2026-05-07 19:53 | 40.40355 | 27.28982 | 24051 ft | 394 kts | 0° |
| 2026-05-07 19:53 | 40.43089 | 27.29172 | 23576 ft | 391 kts | 0° |
| 2026-05-07 19:53 | 40.45806 | 27.29359 | 23000 ft | 389 kts | 0° |
| 2026-05-07 19:53 | 40.48502 | 27.29544 | 22442 ft | 387 kts | 0° |
| 2026-05-07 19:54 | 40.51172 | 27.29727 | 21922 ft | 384 kts | 0° |
| 2026-05-07 19:54 | 40.53840 | 27.29910 | 21421 ft | 381 kts | 0° |
| 2026-05-07 19:54 | 40.56480 | 27.30091 | 20920 ft | 379 kts | 0° |
| 2026-05-07 19:54 | 40.59107 | 27.30272 | 20423 ft | 377 kts | 1° |
| 2026-05-07 19:55 | 40.61716 | 27.30451 | 19920 ft | 375 kts | 1° |
| 2026-05-07 19:55 | 40.64311 | 27.30629 | 19437 ft | 373 kts | 1° |
| 2026-05-07 19:55 | 40.66859 | 27.30805 | 19048 ft | 369 kts | 1° |
| 2026-05-07 19:55 | 40.69382 | 27.30996 | 18938 ft | 357 kts | 4° |
| 2026-05-07 19:56 | 40.71728 | 27.31891 | 18838 ft | 349 kts | 26° |
| 2026-05-07 19:56 | 40.73632 | 27.33801 | 18718 ft | 343 kts | 46° |
| 2026-05-07 19:56 | 40.74985 | 27.36361 | 18413 ft | 342 kts | 64° |
| 2026-05-07 19:56 | 40.75790 | 27.39321 | 17973 ft | 344 kts | 72° |
| 2026-05-07 19:57 | 40.76469 | 27.42330 | 17637 ft | 341 kts | 73° |
| 2026-05-07 19:57 | 40.77112 | 27.45325 | 17313 ft | 337 kts | 73° |
| 2026-05-07 19:57 | 40.77749 | 27.48297 | 16933 ft | 336 kts | 73° |
| 2026-05-07 19:57 | 40.78388 | 27.51249 | 16629 ft | 332 kts | 73° |
| 2026-05-07 19:58 | 40.79025 | 27.54162 | 16296 ft | 330 kts | 73° |
| 2026-05-07 19:58 | 40.79665 | 27.57066 | 15934 ft | 329 kts | 73° |
| 2026-05-07 19:58 | 40.80306 | 27.59957 | 15602 ft | 327 kts | 73° |
| 2026-05-07 19:58 | 40.80942 | 27.62823 | 15284 ft | 324 kts | 73° |
| 2026-05-07 19:59 | 40.81574 | 27.65664 | 14946 ft | 323 kts | 73° |
| 2026-05-07 19:59 | 40.82207 | 27.68509 | 14606 ft | 322 kts | 73° |
| 2026-05-07 19:59 | 40.82836 | 27.71339 | 14276 ft | 321 kts | 73° |
| 2026-05-07 19:59 | 40.83461 | 27.74156 | 13958 ft | 319 kts | 73° |
| 2026-05-07 20:00 | 40.84083 | 27.76960 | 13607 ft | 318 kts | 73° |
| 2026-05-07 20:00 | 40.84702 | 27.79752 | 13269 ft | 315 kts | 73° |
| 2026-05-07 20:00 | 40.85308 | 27.82492 | 13174 ft | 305 kts | 73° |
| 2026-05-07 20:00 | 40.85891 | 27.85134 | 13087 ft | 295 kts | 73° |
| 2026-05-07 20:01 | 40.86454 | 27.87685 | 13011 ft | 284 kts | 73° |
| 2026-05-07 20:01 | 40.86999 | 27.90157 | 12899 ft | 277 kts | 73° |
| 2026-05-07 20:01 | 40.87533 | 27.92584 | 12646 ft | 274 kts | 73° |
| 2026-05-07 20:01 | 40.88060 | 27.94979 | 12336 ft | 270 kts | 73° |
| 2026-05-07 20:02 | 40.88582 | 27.97354 | 11857 ft | 271 kts | 73° |
| 2026-05-07 20:02 | 40.89109 | 27.99751 | 11431 ft | 270 kts | 73° |
| 2026-05-07 20:02 | 40.89628 | 28.02118 | 11053 ft | 267 kts | 73° |
| 2026-05-07 20:02 | 40.90143 | 28.04471 | 10656 ft | 265 kts | 73° |
| 2026-05-07 20:03 | 40.90654 | 28.06805 | 10270 ft | 263 kts | 73° |
| 2026-05-07 20:03 | 40.91160 | 28.09125 | 9873 ft | 262 kts | 73° |
| 2026-05-07 20:03 | 40.91662 | 28.11425 | 9448 ft | 260 kts | 73° |
| 2026-05-07 20:03 | 40.92163 | 28.13722 | 9018 ft | 259 kts | 73° |
| 2026-05-07 20:04 | 40.92661 | 28.16009 | 8589 ft | 258 kts | 73° |
| 2026-05-07 20:04 | 40.93157 | 28.18290 | 8183 ft | 257 kts | 73° |
| 2026-05-07 20:04 | 40.93650 | 28.20557 | 7766 ft | 256 kts | 73° |
| 2026-05-07 20:04 | 40.94141 | 28.22819 | 7370 ft | 255 kts | 73° |
| 2026-05-07 20:05 | 40.94629 | 28.25070 | 6973 ft | 255 kts | 73° |
| 2026-05-07 20:05 | 40.95117 | 28.27321 | 6577 ft | 254 kts | 73° |
| 2026-05-07 20:05 | 40.95604 | 28.29566 | 6170 ft | 253 kts | 73° |
| 2026-05-07 20:05 | 40.96086 | 28.31795 | 5795 ft | 251 kts | 73° |
| 2026-05-07 20:06 | 40.96564 | 28.34008 | 5497 ft | 249 kts | 73° |
| 2026-05-07 20:06 | 40.97040 | 28.36218 | 5252 ft | 250 kts | 73° |
| 2026-05-07 20:06 | 40.97511 | 28.38439 | 5043 ft | 251 kts | 76° |
| 2026-05-07 20:06 | 40.97694 | 28.40745 | 4997 ft | 253 kts | 89° |
| 2026-05-07 20:07 | 40.97691 | 28.43048 | 4971 ft | 247 kts | 91° |
| 2026-05-07 20:07 | 40.97663 | 28.45286 | 4966 ft | 241 kts | 91° |
| 2026-05-07 20:07 | 40.97640 | 28.47491 | 4985 ft | 239 kts | 91° |
| 2026-05-07 20:07 | 40.97624 | 28.49672 | 4992 ft | 241 kts | 90° |
| 2026-05-07 20:08 | 40.97614 | 28.51927 | 4988 ft | 243 kts | 90° |
| 2026-05-07 20:08 | 40.97609 | 28.54129 | 4980 ft | 241 kts | 90° |
| 2026-05-07 20:08 | 40.97606 | 28.56342 | 4975 ft | 240 kts | 90° |
| 2026-05-07 20:08 | 40.97605 | 28.58554 | 4984 ft | 240 kts | 90° |
| 2026-05-07 20:09 | 40.97606 | 28.60766 | 4993 ft | 240 kts | 90° |
| 2026-05-07 20:09 | 40.97607 | 28.62977 | 4991 ft | 241 kts | 90° |
| 2026-05-07 20:09 | 40.97608 | 28.65199 | 4993 ft | 242 kts | 90° |
| 2026-05-07 20:10 | 40.97623 | 28.69642 | 4981 ft | 241 kts | 84° |
| 2026-05-07 20:10 | 40.98235 | 28.71640 | 4992 ft | 235 kts | 45° |
| 2026-05-07 20:10 | 40.99571 | 28.72644 | 4998 ft | 212 kts | 7° |
| 2026-05-07 20:10 | 41.00954 | 28.72892 | 4980 ft | 190 kts | 3° |
| 2026-05-07 20:11 | 41.02218 | 28.73079 | 4930 ft | 182 kts | 360° |
| 2026-05-07 20:11 | 41.03481 | 28.73158 | 4705 ft | 180 kts | 356° |
| 2026-05-07 20:11 | 41.04719 | 28.73174 | 4472 ft | 175 kts | 355° |
| 2026-05-07 20:11 | 41.05917 | 28.73165 | 4242 ft | 169 kts | 354° |
| 2026-05-07 20:12 | 41.07076 | 28.73148 | 4023 ft | 164 kts | 354° |
| 2026-05-07 20:12 | 41.08195 | 28.73128 | 3806 ft | 158 kts | 353° |
| 2026-05-07 20:12 | 41.09252 | 28.73110 | 3659 ft | 145 kts | 353° |
| 2026-05-07 20:12 | 41.10265 | 28.73089 | 3444 ft | 145 kts | 353° |
| 2026-05-07 20:13 | 41.11285 | 28.73067 | 3228 ft | 147 kts | 353° |
| 2026-05-07 20:13 | 41.12306 | 28.73047 | 3042 ft | 147 kts | 352° |
| 2026-05-07 20:13 | 41.12977 | 28.73034 | 2919 ft | 146 kts | 352° |
| 2026-05-07 20:13 | 41.14340 | 28.73007 | 2650 ft | 145 kts | 352° |
| 2026-05-07 20:14 | 41.15346 | 28.72987 | 2470 ft | 145 kts | 353° |
| 2026-05-07 20:14 | 41.16357 | 28.72968 | 2277 ft | 146 kts | 353° |
| 2026-05-07 20:14 | 41.17376 | 28.72947 | 2087 ft | 147 kts | 353° |
| 2026-05-07 20:14 | 41.18389 | 28.72930 | 1894 ft | 144 kts | 354° |
| 2026-05-07 20:15 | 41.19055 | 28.72917 | 1753 ft | 144 kts | 354° |
| 2026-05-07 20:15 | 41.20061 | 28.72895 | 1558 ft | 145 kts | 355° |
| 2026-05-07 20:15 | 41.21393 | 28.72869 | 1307 ft | 145 kts | 356° |
| 2026-05-07 20:15 | 41.22070 | 28.72856 | 1172 ft | 143 kts | 356° |
| 2026-05-07 20:16 | 41.23062 | 28.72837 | 990 ft | 142 kts | 357° |
| 2026-05-07 20:16 | 41.24371 | 28.72826 | 755 ft | 144 kts | 358° |
| 2026-05-07 20:16 | 41.25048 | 28.72804 | 605 ft | 143 kts | 357° |
| 2026-05-07 20:16 | 41.26032 | 28.72771 | 419 ft | 142 kts | 359° |
| 2026-05-07 20:17 | 41.26986 | 28.72753 | 330 ft | 120 kts | 0° |
| 2026-05-07 20:17 | 41.27611 | 28.72750 | 333 ft | 59 kts | 359° |
| 2026-05-07 20:17 | 41.27834 | 28.72745 | 332 ft | 19 kts | 359° |
| 2026-05-07 20:17 | 41.27970 | 28.72771 | 331 ft | 20 kts | 19° |
| 2026-05-07 20:18 | 41.28055 | 28.72825 | 333 ft | 9 kts | 29° |
| 2026-05-07 20:18 | 41.28104 | 28.72862 | 333 ft | 7 kts | 30° |
| 2026-05-07 20:18 | 41.28125 | 28.72878 | 332 ft | 3 kts | 30° |
| 2026-05-07 20:18 | 41.28141 | 28.72902 | 330 ft | 7 kts | 78° |
| 2026-05-07 20:19 | 41.28092 | 28.72961 | 331 ft | 11 kts | 174° |
| 2026-05-07 20:19 | 41.28014 | 28.72963 | 333 ft | 11 kts | 181° |
| 2026-05-07 20:19 | 41.27940 | 28.72961 | 331 ft | 11 kts | 181° |
| 2026-05-07 20:19 | 41.27866 | 28.72964 | 332 ft | 11 kts | 178° |
| 2026-05-07 20:20 | 41.27785 | 28.72967 | 331 ft | 12 kts | 179° |
| 2026-05-07 20:20 | 41.27703 | 28.72970 | 332 ft | 12 kts | 180° |
| 2026-05-07 20:20 | 41.27616 | 28.72972 | 332 ft | 14 kts | 179° |
| 2026-05-07 20:20 | 41.27514 | 28.72974 | 329 ft | 14 kts | 179° |
| 2026-05-07 20:21 | 41.27416 | 28.72976 | 330 ft | 14 kts | 179° |
| 2026-05-07 20:21 | 41.27322 | 28.72978 | 331 ft | 14 kts | 179° |
| 2026-05-07 20:21 | 41.27214 | 28.72980 | 329 ft | 16 kts | 179° |
| 2026-05-07 20:21 | 41.27104 | 28.72982 | 333 ft | 16 kts | 179° |
| 2026-05-07 20:22 | 41.26998 | 28.72987 | 330 ft | 15 kts | 173° |
| 2026-05-07 20:22 | 41.26954 | 28.73095 | 333 ft | 15 kts | 90° |
| 2026-05-07 20:22 | 41.26955 | 28.73226 | 333 ft | 14 kts | 89° |
| 2026-05-07 20:22 | 41.26958 | 28.73352 | 331 ft | 13 kts | 89° |
| 2026-05-07 20:23 | 41.26958 | 28.73473 | 329 ft | 13 kts | 90° |
| 2026-05-07 20:23 | 41.26960 | 28.73605 | 333 ft | 16 kts | 89° |
| 2026-05-07 20:23 | 41.26961 | 28.73761 | 333 ft | 17 kts | 88° |
| 2026-05-07 20:23 | 41.26934 | 28.73867 | 330 ft | 12 kts | 158° |
| 2026-05-07 20:24 | 41.26840 | 28.73873 | 332 ft | 14 kts | 180° |
| 2026-05-07 20:24 | 41.26744 | 28.73874 | 333 ft | 13 kts | 179° |
| 2026-05-07 20:24 | 41.26656 | 28.73860 | 333 ft | 13 kts | 221° |
| 2026-05-07 20:24 | 41.26649 | 28.73760 | 333 ft | 5 kts | 269° |